Track Цыденов Александр

Time Latitude Longitude Accuracy (66% radius in meters) Altitude (meters) Speed (km/hour) Bearing (degrees) Battery (%) GPS flag
04:29:32 51.898280 107.665336 15.170000076294 660 0 0 35 1 delete
04:29:22 51.898286 107.665346 16.687000274658 652 0 0 35 1 delete
04:29:11 51.898286 107.665346 16.687000274658 652 0 0 35 1 delete
04:29:01 51.898286 107.665346 15.170000076294 652 0 0 35 1 delete
04:28:51 51.898286 107.665346 16.687000274658 652 0 0 35 1 delete
04:28:41 51.898286 107.665346 15.170000076294 652 0 0 35 1 delete
04:28:30 51.898286 107.665346 7.585000038147 652 0 0 35 1 delete
04:28:20 51.898287 107.665346 7.585000038147 652 0 0 35 1 delete
04:28:10 51.898287 107.665346 4.5509996414185 652 0 0 35 1 delete
04:27:59 51.898287 107.665346 4.5509996414185 652 0 0 35 1 delete
04:27:48 51.898291 107.665350 6.0679998397827 652 0 0 35 1 delete
04:27:38 51.898310 107.665324 7.585000038147 651 0 0 35 1 delete
04:27:37 51.898314 107.665321 7.585000038147 651 0 0 35 1 delete
04:27:27 51.898342 107.665308 7.585000038147 651 0 0 35 1 delete
04:27:17 51.898347 107.665219 7.585000038147 650 0.75999999046326 81.800003051758 35 1 delete
04:27:09 51.898348 107.665179 7.585000038147 647 0 0 35 1 delete
04:27:07 51.898338 107.665160 7.585000038147 648 0.33000001311302 81.800003051758 35 1 delete
04:27:00 51.898299 107.665048 6.0679998397827 648 1.1299999952316 77.199996948242 35 1 delete
04:26:56 51.898287 107.664994 6.0679998397827 649 0.56000000238419 68.099998474121 35 1 delete
04:26:47 51.898254 107.664908 4.5509996414185 649 1.1299999952316 55.200000762939 35 1 delete
04:26:46 51.898248 107.664893 4.5509996414185 649 0.8299999833107 66.699996948242 35 1 delete
04:26:35 51.898220 107.664772 4.5509996414185 651 0.46999999880791 67.699996948242 35 1 delete
04:26:34 51.898217 107.664759 4.5509996414185 652 0.93000000715256 72.099998474121 35 1 delete
04:26:25 51.898181 107.664635 4.5509996414185 652 0.64999997615814 54.799999237061 35 1 delete
04:26:24 51.898177 107.664627 4.5509996414185 652 0 0 35 1 delete
04:26:14 51.898115 107.664530 4.5509996414185 654 0.75 58.799999237061 35 1 delete
04:26:13 51.898112 107.664518 4.5509996414185 654 0.75 64.699996948242 35 1 delete
04:26:04 51.898097 107.664440 4.5509996414185 655 0 0 35 1 delete
04:25:53 51.898099 107.664435 4.5509996414185 654 0 0 35 1 delete
04:25:43 51.898098 107.664432 4.5509996414185 654 0 0 35 1 delete
04:25:33 51.898093 107.664414 4.5509996414185 654 0 0 35 1 delete
04:25:26 51.898084 107.664379 4.5509996414185 654 0 0 35 1 delete
04:25:22 51.898087 107.664349 4.5509996414185 653 0 0 35 1 delete
04:25:12 51.898074 107.664306 6.0679998397827 654 0 0 35 1 delete
04:25:02 51.898058 107.664284 6.0679998397827 657 0 0 35 1 delete
04:24:55 51.898062 107.664233 6.0679998397827 661 0.64999997615814 50.599998474121 35 1 delete
04:24:51 51.898040 107.664188 7.585000038147 661 0.91000002622604 56.5 35 1 delete
04:24:47 51.897997 107.664132 9.1019992828369 660 1.1399999856949 33.400001525879 35 1 delete
04:24:41 51.897935 107.664083 7.585000038147 656 0.60000002384186 30.39999961853 35 1 delete
04:24:38 51.897918 107.664047 9.1019992828369 653 0.80000001192093 41.200000762939 35 1 delete
04:24:30 51.897859 107.663921 10.618999481201 655 0.60000002384186 54.5 35 1 delete
04:24:20 51.897838 107.663793 9.1019992828369 651 0 0 35 1 delete
04:24:13 51.897825 107.663772 7.585000038147 651 0 0 35 1 delete
04:24:10 51.897821 107.663750 7.585000038147 650 0 0 35 1 delete
04:24:00 51.897789 107.663630 6.0679998397827 649 0.87999999523163 69.300003051758 35 1 delete
04:23:59 51.897783 107.663603 7.585000038147 649 0.58999997377396 56.799999237061 35 1 delete
04:23:52 51.897745 107.663475 7.585000038147 654 1.1200000047684 59.700000762939 35 1 delete
04:23:49 51.897728 107.663445 7.585000038147 655 0.64999997615814 50.900001525879 35 1 delete
04:23:42 51.897676 107.663369 6.0679998397827 655 1.0499999523163 57.799999237061 35 1 delete
04:23:38 51.897641 107.663342 6.0679998397827 653 1.0900000333786 63 35 1 delete